Hovedside
METAR-TAF:

METAR-TAF

Lufthavner :

Jeddah, Saudi-Arabia

breddegrad: 21-42N, lengdegrad: 039-11E, høyde over havet: 15 m

Gjeldene værobservasjon

Denne rapporten ble laget for 59 minutter siden, klokken 03:00 UTC
Vind 4 kt fra Nord-nordvest
Temperatur 30°C
Luftfuktighet 75%
Trykk 1006 hPa
Sikt 10 km eller mer
ingen skyer under 1500 m og ingen bygeskyer

METAR: OEJN 200300Z 33004KT CAVOK 30/25 Q1006 NOSIG

Tid: 06:59 (03:59 UTC)

Varsel

Denne rapporten ble laget for 4 timer og 59 minutter siden, klokken 23:00 UTC
Varsel gyldig fra 20. klokken 00 UTC til 21. klokken 06 UTC
Vind 3 kt fra skiftende retning
Sikt 10 km eller mer
Få skyer i en høyde av 4000 ft
Midlertidig
fra 20. klokken 00 UTC til 20. klokken 05 UTC
Sikt: 5000 m
Få skyer i en høyde av 1000 ft
dis
Blir
fra 20. klokken 06 UTC til 20. klokken 08 UTC
Vind 12 kt fra Vest-sørvest

TAF: OEJN 192300Z 2000/2106 VRB03KT 9999 FEW040 TEMPO 2000/2005 5000 BR FEW010 BECMG 2006/2008 25012KT

Værobservasjoner og værvarsel for over 4000 flyplasser (METAR- og TAF-rapporter).

Tilgjengelige stasjoner er representert av de røde og gule prikkene på kartet.

Hold musepekeren over prikken for å se navnet på stasjonen.

Klikk så for å se værobservasjoner og -varsler.

For å forandre kartet kan du klikke på den grønne knappen med svart kryss for å zoome inn, på den grønne knappen med strek for å zoome ut, eller på de grønne pilene for å se tilstøtende kart.


METAR-TAF: